createdAt,value
2019-02-12T00:00:44.783Z,15.23
2019-02-12T00:03:14.594Z,28.90
2019-02-12T00:05:44.539Z,29.30
2019-02-12T00:08:14.237Z,22.33
2019-02-12T00:10:44.146Z,18.23
2019-02-12T00:13:13.896Z,19.30
2019-02-12T00:15:43.691Z,14.90
2019-02-12T00:18:13.621Z,25.17
2019-02-12T00:20:43.389Z,20.73
2019-02-12T00:23:13.273Z,18.50
2019-02-12T00:25:43.261Z,34.90
2019-02-12T00:28:13.082Z,18.70
2019-02-12T00:30:43.232Z,17.50
2019-02-12T00:33:13.143Z,15.53
2019-02-12T00:35:42.932Z,14.53
2019-02-12T00:38:12.707Z,18.50
2019-02-12T00:40:42.514Z,14.63
2019-02-12T00:43:12.660Z,22.77
2019-02-12T00:45:42.511Z,20.60
2019-02-12T00:48:12.538Z,13.73
2019-02-12T00:50:42.303Z,14.27
2019-02-12T00:53:12.134Z,19.80
2019-02-12T00:55:41.877Z,10.63
2019-02-12T00:58:11.657Z,19.87
2019-02-12T01:00:42.006Z,17.47
2019-02-12T01:03:11.798Z,14.20
2019-02-12T01:05:41.651Z,21.50
2019-02-12T01:08:11.448Z,12.70
2019-02-12T01:10:41.525Z,21.57
2019-02-12T01:13:11.418Z,19.30
2019-02-12T01:15:41.195Z,21.77
2019-02-12T01:18:11.132Z,13.00
2019-02-12T01:20:41.562Z,14.03
2019-02-12T01:23:11.405Z,16.60
2019-02-12T01:25:41.651Z,19.23
2019-02-12T01:28:11.448Z,22.30
2019-02-12T01:30:41.353Z,21.03
2019-02-12T01:33:11.266Z,22.87
2019-02-12T01:35:41.082Z,16.07
2019-02-12T01:38:10.904Z,29.57
2019-02-12T01:40:40.646Z,25.43
2019-02-12T01:43:10.863Z,22.00
2019-02-12T01:45:40.684Z,18.63
2019-02-12T01:48:10.574Z,10.63
2019-02-12T01:50:40.429Z,23.33
2019-02-12T01:53:10.311Z,27.47
2019-02-12T01:55:40.328Z,18.80
2019-02-12T02:02:03.490Z,20.40
2019-02-12T02:04:33.525Z,16.43
2019-02-12T02:07:03.289Z,17.93
2019-02-12T02:09:33.009Z,17.30
2019-02-12T02:12:02.830Z,14.77
2019-02-12T02:14:32.686Z,17.40
2019-02-12T02:17:02.643Z,18.43
2019-02-12T02:19:32.430Z,15.10
2019-02-12T02:22:02.277Z,23.07
2019-02-12T02:24:32.195Z,19.87
2019-02-12T02:27:02.500Z,17.63
2019-02-12T02:29:32.275Z,11.67
2019-02-12T02:32:02.128Z,9.10
2019-02-12T02:34:31.961Z,26.07
2019-02-12T02:37:01.777Z,11.60
2019-02-12T02:39:31.980Z,16.27
2019-02-12T02:42:02.184Z,18.23
2019-02-12T02:44:31.925Z,14.57
2019-02-12T02:47:01.996Z,20.83
2019-02-12T02:49:31.770Z,21.13
2019-02-12T02:52:02.037Z,10.80
2019-02-12T02:54:31.905Z,15.77
2019-02-12T02:57:01.959Z,11.27
2019-02-12T02:59:32.303Z,13.77
2019-02-12T03:02:02.158Z,12.10
2019-02-12T03:04:32.011Z,10.53
2019-02-12T03:07:01.831Z,17.13
2019-02-12T03:09:31.558Z,17.43
2019-02-12T03:12:01.335Z,17.33
2019-02-12T03:14:31.242Z,10.97
2019-02-12T03:17:01.095Z,19.70
2019-02-12T03:19:31.104Z,9.67
2019-02-12T03:22:03.624Z,21.23
2019-02-12T03:24:32.323Z,10.47
2019-02-12T03:27:02.278Z,6.73
2019-02-12T03:29:32.153Z,10.63
2019-02-12T03:32:01.884Z,10.87
2019-02-12T03:34:31.701Z,15.37
2019-02-12T03:37:01.474Z,14.13
2019-02-12T03:39:31.267Z,20.30
2019-02-12T03:42:01.781Z,19.27
2019-02-12T03:48:13.317Z,20.23
2019-02-12T03:50:43.097Z,11.90
2019-02-12T03:53:12.853Z,14.53
2019-02-12T03:55:42.663Z,12.10
2019-02-12T03:58:12.481Z,10.20
2019-02-12T04:00:42.508Z,10.93
2019-02-12T04:03:12.890Z,10.03
2019-02-12T04:05:42.863Z,14.23
2019-02-12T04:08:12.692Z,11.23
2019-02-12T04:10:42.522Z,22.07
2019-02-12T04:13:12.729Z,18.80
2019-02-12T04:15:43.095Z,10.53
2019-02-12T04:18:12.941Z,13.03
2019-02-12T04:20:42.678Z,14.03
2019-02-12T04:23:12.575Z,12.47
2019-02-12T04:25:42.381Z,21.97
2019-02-12T04:28:12.213Z,12.67
2019-02-12T04:30:42.342Z,22.20
2019-02-12T04:33:12.281Z,8.43
2019-02-12T04:35:42.086Z,12.70
2019-02-12T04:38:11.971Z,14.47
2019-02-12T04:40:41.892Z,14.57
2019-02-12T04:43:11.627Z,13.70
2019-02-12T04:45:41.476Z,13.93
2019-02-12T04:48:11.786Z,10.33
2019-02-12T04:50:41.574Z,13.50
2019-02-12T04:53:11.868Z,16.90
2019-02-12T04:55:41.696Z,9.00
2019-02-12T04:58:11.522Z,13.33
2019-02-12T05:00:41.473Z,7.87
2019-02-12T05:03:12.992Z,16.47
2019-02-12T05:05:43.125Z,13.40
2019-02-12T05:08:12.990Z,15.03
2019-02-12T05:10:48.595Z,15.77
2019-02-12T05:13:18.391Z,21.00
2019-02-12T05:15:48.106Z,14.33
2019-02-12T05:18:18.228Z,21.47
2019-02-12T05:20:48.608Z,12.70
2019-02-12T05:23:18.351Z,13.90
2019-02-12T05:25:48.200Z,19.77
2019-02-12T05:28:18.038Z,17.80
2019-02-12T05:30:48.329Z,9.77
2019-02-12T05:33:18.469Z,21.07
2019-02-12T05:35:48.615Z,15.40
2019-02-12T05:38:18.669Z,20.43
2019-02-12T05:40:48.512Z,11.73
2019-02-12T05:43:18.345Z,12.67
2019-02-12T05:45:48.231Z,15.63
2019-02-12T05:48:18.113Z,10.83
2019-02-12T05:50:48.063Z,12.70
2019-02-12T05:53:18.477Z,7.53
2019-02-12T05:55:48.331Z,11.00
2019-02-12T05:58:21.936Z,10.67
2019-02-12T06:01:01.598Z,15.53
2019-02-12T06:03:43.130Z,10.93
2019-02-12T06:06:20.816Z,17.97
2019-02-12T06:08:56.012Z,15.40
2019-02-12T06:11:27.485Z,17.87
2019-02-12T06:13:57.530Z,20.33
2019-02-12T06:16:27.782Z,14.37
2019-02-12T06:18:57.657Z,9.70
2019-02-12T06:21:27.702Z,5.63
2019-02-12T06:23:57.809Z,12.97
2019-02-12T06:26:27.951Z,8.57
2019-02-12T06:36:02.357Z,16.40
2019-02-12T06:38:32.619Z,19.93
2019-02-12T06:41:02.447Z,12.77
2019-02-12T06:43:32.684Z,18.80
2019-02-12T06:46:02.583Z,15.60
2019-02-12T06:48:32.422Z,12.87
2019-02-12T06:51:02.172Z,15.83
2019-02-12T06:53:31.869Z,14.10
2019-02-12T06:56:02.126Z,18.60
2019-02-12T06:58:32.359Z,21.87
2019-02-12T07:01:03.109Z,20.27
2019-02-12T07:03:58.256Z,28.57
2019-02-12T07:06:37.582Z,18.00
2019-02-12T07:09:25.649Z,31.57
2019-02-12T07:12:46.094Z,14.70
2019-02-12T07:19:53.286Z,22.13
2019-02-12T07:23:25.315Z,21.00
2019-02-12T07:26:08.473Z,14.10
2019-02-12T07:29:30.050Z,13.03
2019-02-12T07:32:35.430Z,12.93
2019-02-12T07:35:26.680Z,19.70
2019-02-12T07:38:25.361Z,17.93
2019-02-12T07:41:22.122Z,14.80
2019-02-12T07:44:44.768Z,14.77
2019-02-12T07:47:49.296Z,9.97
2019-02-12T07:50:48.740Z,13.80
2019-02-12T07:53:48.390Z,19.57
2019-02-12T07:56:36.517Z,22.40
2019-02-12T07:59:32.504Z,17.17
2019-02-12T08:02:52.613Z,18.80
2019-02-12T08:06:15.334Z,16.77
2019-02-12T08:09:29.154Z,16.93
2019-02-12T08:12:21.806Z,15.10
2019-02-12T08:15:23.901Z,12.77
2019-02-12T08:18:29.374Z,9.47
2019-02-12T08:21:33.472Z,13.43
2019-02-12T08:24:43.859Z,19.03
2019-02-12T08:27:38.972Z,17.63
2019-02-12T08:30:30.536Z,15.87
2019-02-12T08:33:28.613Z,14.07
2019-02-12T08:36:14.770Z,15.10
2019-02-12T08:39:21.330Z,16.83
2019-02-12T08:42:21.821Z,21.20
2019-02-12T08:45:48.024Z,7.13
2019-02-12T08:48:43.454Z,17.13
2019-02-12T08:52:01.752Z,15.60
2019-02-12T08:55:16.472Z,18.47
2019-02-12T08:58:23.289Z,10.33
2019-02-12T09:01:16.157Z,9.40
2019-02-12T09:04:17.415Z,17.63
2019-02-12T09:07:18.227Z,15.53
2019-02-12T09:10:34.805Z,12.67
2019-02-12T09:13:30.963Z,12.93
2019-02-12T09:16:37.028Z,11.90
2019-02-12T09:19:20.390Z,14.43
2019-02-12T09:22:32.062Z,14.57
2019-02-12T09:25:33.535Z,20.77
2019-02-12T09:28:30.636Z,9.10
2019-02-12T09:31:34.773Z,9.53
2019-02-12T09:34:50.409Z,11.70
2019-02-12T09:38:01.355Z,14.00
2019-02-12T09:40:53.513Z,12.40
2019-02-12T09:43:59.302Z,12.03
2019-02-12T09:46:56.145Z,16.60
2019-02-12T09:50:09.380Z,19.17
2019-02-12T09:53:25.310Z,14.07
2019-02-12T09:56:28.239Z,14.73
2019-02-12T09:59:40.689Z,13.57
2019-02-12T10:02:46.953Z,14.00
2019-02-12T10:06:21.287Z,12.57
2019-02-12T10:09:08.233Z,20.27
2019-02-12T10:12:16.345Z,13.73
2019-02-12T10:15:35.858Z,15.60
2019-02-12T10:18:20.050Z,16.73
2019-02-12T10:21:31.055Z,17.40
2019-02-12T10:24:20.838Z,13.93
2019-02-12T10:27:28.872Z,17.73
2019-02-12T10:30:14.856Z,20.40
2019-02-12T10:32:44.705Z,14.30
2019-02-12T10:35:15.562Z,13.37
2019-02-12T10:37:45.624Z,14.77
2019-02-12T10:40:15.463Z,14.60
2019-02-12T10:42:45.275Z,16.80
2019-02-12T10:48:47.658Z,16.43
2019-02-12T10:51:17.952Z,16.40
2019-02-12T10:53:48.629Z,15.43
2019-02-12T10:56:19.105Z,12.53
2019-02-12T10:58:49.353Z,15.27
2019-02-12T11:01:19.352Z,14.53
2019-02-12T11:03:49.932Z,16.03
2019-02-12T11:06:19.754Z,12.97
2019-02-12T11:08:49.548Z,13.33
2019-02-12T11:11:19.328Z,16.80
2019-02-12T11:13:49.286Z,13.50
2019-02-12T11:16:19.234Z,14.03
2019-02-12T11:18:49.102Z,23.70
2019-02-12T11:21:19.126Z,16.87
2019-02-12T11:23:49.305Z,15.00
2019-02-12T11:26:19.049Z,20.87
2019-02-12T11:28:49.298Z,21.33
2019-02-12T11:31:19.047Z,15.97
2019-02-12T11:33:49.302Z,19.80
2019-02-12T11:36:19.255Z,15.33
2019-02-12T11:38:49.408Z,13.57
2019-02-12T11:41:19.418Z,21.10
2019-02-12T11:43:49.370Z,13.47
2019-02-12T11:46:19.180Z,18.80
2019-02-12T11:48:49.205Z,16.67
2019-02-12T11:51:19.412Z,23.20
2019-02-12T11:53:49.300Z,18.63
2019-02-12T11:56:19.198Z,23.37
2019-02-12T11:58:49.795Z,20.53
2019-02-12T12:01:22.712Z,14.47
2019-02-12T12:03:52.778Z,15.67
2019-02-12T12:06:22.657Z,18.60
2019-02-12T12:08:52.517Z,17.60
2019-02-12T12:11:22.345Z,21.03
2019-02-12T12:13:52.110Z,13.57
2019-02-12T12:16:21.918Z,19.57
2019-02-12T12:18:51.800Z,13.97
2019-02-12T12:21:21.654Z,15.00
2019-02-12T12:23:51.531Z,15.07
2019-02-12T12:26:21.489Z,18.20
2019-02-12T12:28:51.360Z,14.27
2019-02-12T12:31:30.266Z,16.07
2019-02-12T12:34:00.053Z,16.53
2019-02-12T12:36:29.879Z,13.23
2019-02-12T12:38:59.663Z,18.00
2019-02-12T12:41:29.493Z,18.93
2019-02-12T12:43:59.398Z,15.73
2019-02-12T12:46:29.223Z,19.50
2019-02-12T12:48:59.310Z,17.93
2019-02-12T12:51:29.371Z,17.13
2019-02-12T12:53:59.287Z,22.97
2019-02-12T12:56:29.197Z,20.57
2019-02-12T12:58:59.094Z,15.77
2019-02-12T13:01:29.010Z,15.43
2019-02-12T13:03:58.986Z,20.00
2019-02-12T13:06:28.831Z,17.97
2019-02-12T13:08:58.811Z,15.13
2019-02-12T13:11:28.741Z,14.17
2019-02-12T13:13:58.559Z,19.30
2019-02-12T13:16:28.556Z,17.20
2019-02-12T13:18:58.546Z,16.97
2019-02-12T13:21:28.544Z,15.83
2019-02-12T13:23:58.583Z,11.40
2019-02-12T13:26:28.344Z,16.37
2019-02-12T13:28:58.208Z,14.13
2019-02-12T13:31:28.188Z,14.93
2019-02-12T13:33:58.204Z,12.87
2019-02-12T13:36:28.150Z,13.83
2019-02-12T13:38:58.130Z,18.10
2019-02-12T13:41:28.018Z,18.30
2019-02-12T13:43:57.935Z,14.47
2019-02-12T13:46:27.772Z,13.70
2019-02-12T13:48:57.623Z,9.97
2019-02-12T13:51:27.522Z,14.20
2019-02-12T13:53:57.382Z,15.80
2019-02-12T13:56:27.358Z,13.27
2019-02-12T13:58:57.218Z,13.53
2019-02-12T14:01:27.192Z,13.07
2019-02-12T14:03:57.080Z,14.80
2019-02-12T14:06:27.023Z,15.87
2019-02-12T14:08:56.983Z,16.57
2019-02-12T14:11:26.957Z,13.73
2019-02-12T14:13:56.890Z,17.60
2019-02-12T14:16:26.874Z,13.03
2019-02-12T14:18:56.734Z,13.47
2019-02-12T14:21:26.601Z,15.03
2019-02-12T14:23:56.579Z,20.60
2019-02-12T14:26:26.573Z,15.63
2019-02-12T14:28:56.487Z,17.13
2019-02-12T14:31:26.542Z,16.27
2019-02-12T14:33:56.472Z,15.73
2019-02-12T14:36:26.402Z,19.43
2019-02-12T14:38:56.297Z,16.70
2019-02-12T14:41:26.242Z,16.90
2019-02-12T14:43:56.180Z,16.30
2019-02-12T14:46:26.038Z,17.73
2019-02-12T14:48:56.019Z,14.97
2019-02-12T14:51:26.028Z,12.70
2019-02-12T14:53:56.034Z,17.27
2019-02-12T14:56:26.002Z,21.80
2019-02-12T14:58:55.934Z,19.20
2019-02-12T15:01:25.859Z,18.80
2019-02-12T15:03:55.809Z,17.07
2019-02-12T15:06:25.793Z,21.27
2019-02-12T15:08:55.829Z,18.17
2019-02-12T15:11:25.824Z,19.80
2019-02-12T15:13:55.793Z,18.50
2019-02-12T15:16:25.717Z,19.83
2019-02-12T15:18:55.659Z,17.97
2019-02-12T15:21:25.531Z,18.10
2019-02-12T15:23:55.433Z,15.20
2019-02-12T15:26:25.335Z,17.23
2019-02-12T15:28:55.396Z,16.13
2019-02-12T15:31:25.410Z,18.80
2019-02-12T15:33:55.369Z,15.80
2019-02-12T15:36:25.271Z,14.67
2019-02-12T15:38:55.322Z,20.87
2019-02-12T15:41:25.281Z,18.20
2019-02-12T15:43:55.294Z,18.07
2019-02-12T15:46:25.245Z,16.00
2019-02-12T15:48:55.143Z,14.60
2019-02-12T15:51:25.070Z,17.83
2019-02-12T15:53:54.984Z,13.90
2019-02-12T15:56:25.179Z,16.20
2019-02-12T15:58:55.082Z,18.73
2019-02-12T16:01:26.603Z,20.07
2019-02-12T16:03:58.162Z,20.73
2019-02-12T16:06:28.319Z,17.27
2019-02-12T16:08:58.220Z,17.17
2019-02-12T16:11:28.219Z,19.43
2019-02-12T16:13:58.758Z,16.30
2019-02-12T16:16:30.128Z,17.87
2019-02-12T16:19:00.703Z,15.90
2019-02-12T16:21:30.531Z,22.53
2019-02-12T16:24:00.437Z,18.97
2019-02-12T16:26:30.342Z,17.90
2019-02-12T16:29:00.117Z,23.13
2019-02-12T16:31:30.121Z,16.17
2019-02-12T16:34:00.179Z,17.77
2019-02-12T16:36:30.094Z,19.10
2019-02-12T16:38:59.952Z,15.97
2019-02-12T16:41:29.832Z,19.97
2019-02-12T16:43:59.729Z,25.60
2019-02-12T16:46:29.558Z,17.23
2019-02-12T16:48:59.591Z,22.07
2019-02-12T16:51:29.793Z,17.70
2019-02-12T16:54:00.087Z,17.50
2019-02-12T16:56:30.065Z,19.60
2019-02-12T16:59:03.620Z,15.37
2019-02-12T17:01:31.616Z,14.97
2019-02-12T17:04:01.564Z,16.10
2019-02-12T17:06:31.513Z,15.87
2019-02-12T17:09:01.387Z,20.40
2019-02-12T17:11:31.252Z,20.10
2019-02-12T17:14:01.103Z,25.90
2019-02-12T17:16:30.977Z,22.77
2019-02-12T17:19:00.903Z,16.60
2019-02-12T17:21:30.891Z,22.63
2019-02-12T17:24:00.968Z,24.10
2019-02-12T17:26:30.879Z,20.87
2019-02-12T17:29:00.911Z,18.27
2019-02-12T17:31:30.881Z,16.37
2019-02-12T17:34:00.853Z,19.33
2019-02-12T17:36:30.807Z,15.50
2019-02-12T17:39:06.649Z,24.90
2019-02-12T17:41:36.637Z,17.43
2019-02-12T17:44:06.425Z,20.27
2019-02-12T17:46:36.458Z,24.30
2019-02-12T17:49:06.404Z,21.70
2019-02-12T17:51:36.351Z,25.17
2019-02-12T17:54:06.362Z,16.07
2019-02-12T17:56:36.297Z,18.13
2019-02-12T17:59:06.139Z,21.67
2019-02-12T18:01:36.011Z,32.37
2019-02-12T18:04:06.019Z,27.40
2019-02-12T18:06:36.117Z,26.70
2019-02-12T18:09:07.589Z,28.20
2019-02-12T18:11:37.364Z,23.00
2019-02-12T18:14:07.257Z,30.90
2019-02-12T18:16:37.227Z,23.83
2019-02-12T18:19:07.079Z,21.40
2019-02-12T18:21:36.973Z,27.23
2019-02-12T18:24:07.454Z,20.83
2019-02-12T18:26:37.648Z,27.60
2019-02-12T18:29:07.651Z,24.93
2019-02-12T18:31:37.728Z,24.37
2019-02-12T18:34:07.870Z,22.07
2019-02-12T18:36:37.841Z,20.40
2019-02-12T18:39:08.804Z,27.00
2019-02-12T18:41:38.657Z,28.20
2019-02-12T18:44:08.517Z,29.17
2019-02-12T18:46:38.602Z,29.40
2019-02-12T18:49:08.654Z,18.03
2019-02-12T18:51:38.655Z,25.13
2019-02-12T18:54:08.527Z,31.37
2019-02-12T18:56:41.635Z,21.47
2019-02-12T18:59:09.967Z,27.50
2019-02-12T19:01:39.886Z,26.63
2019-02-12T19:04:10.143Z,31.47
2019-02-12T19:06:40.946Z,32.17
2019-02-12T19:09:14.788Z,28.97
2019-02-12T19:11:53.986Z,28.57
2019-02-12T19:14:16.442Z,31.33
2019-02-12T19:16:46.380Z,28.53
2019-02-12T19:19:16.207Z,29.03
2019-02-12T19:21:46.132Z,30.33
2019-02-12T19:24:16.124Z,29.17
2019-02-12T19:26:49.904Z,22.83
2019-02-12T19:29:38.434Z,57.23
2019-02-12T19:32:08.270Z,26.27
2019-02-12T19:34:38.298Z,27.80
2019-02-12T19:37:08.213Z,30.00
2019-02-12T19:39:38.070Z,29.73
2019-02-12T19:42:08.021Z,24.00
2019-02-12T19:44:38.365Z,27.53
2019-02-12T19:47:08.274Z,27.50
2019-02-12T19:49:38.199Z,26.63
2019-02-12T19:52:08.095Z,26.60
2019-02-12T19:54:40.382Z,28.70
2019-02-12T19:57:10.675Z,23.03
2019-02-12T19:59:40.593Z,34.30
2019-02-12T20:02:10.600Z,25.77
2019-02-12T20:04:40.516Z,27.40
2019-02-12T20:07:10.608Z,31.57
2019-02-12T20:09:40.575Z,33.40
2019-02-12T20:12:10.546Z,26.70
2019-02-12T20:14:40.490Z,31.03
2019-02-12T20:17:10.511Z,35.70
2019-02-12T20:19:40.500Z,22.07
2019-02-12T20:22:10.437Z,30.40
2019-02-12T20:24:40.451Z,37.17
2019-02-12T20:27:10.411Z,30.80
2019-02-12T20:29:40.391Z,29.63
2019-02-12T20:32:10.383Z,33.97
2019-02-12T20:34:40.547Z,29.70
2019-02-12T20:37:10.590Z,23.17
2019-02-12T20:39:40.763Z,34.83
2019-02-12T20:42:10.765Z,35.50
2019-02-12T20:44:40.729Z,29.50
2019-02-12T20:47:10.663Z,32.63
2019-02-12T20:49:40.567Z,34.17
2019-02-12T20:52:10.457Z,32.37
2019-02-12T20:54:40.445Z,26.60
2019-02-12T20:57:14.913Z,28.63
2019-02-12T20:59:41.936Z,32.53
2019-02-12T21:02:11.826Z,34.30
2019-02-12T21:04:41.766Z,39.17
2019-02-12T21:07:11.783Z,32.77
2019-02-12T21:09:41.750Z,40.07
2019-02-12T21:12:11.603Z,36.47
2019-02-12T21:14:41.402Z,38.50
2019-02-12T21:17:11.171Z,45.17
2019-02-12T21:19:40.994Z,33.27
2019-02-12T21:22:10.895Z,29.73
2019-02-12T21:24:40.777Z,35.10
2019-02-12T21:27:10.618Z,32.13
2019-02-12T21:29:40.484Z,44.03
2019-02-12T21:32:10.395Z,37.80
2019-02-12T21:34:40.398Z,37.13
2019-02-12T21:37:10.389Z,35.80
2019-02-12T21:39:40.295Z,27.93
2019-02-12T21:42:10.277Z,34.40
2019-02-12T21:44:40.257Z,35.63
2019-02-12T21:47:10.263Z,33.70
2019-02-12T21:49:40.115Z,48.87
2019-02-12T21:52:10.014Z,39.23
2019-02-12T21:54:39.877Z,43.30
2019-02-12T21:57:10.122Z,38.33
2019-02-12T21:59:43.344Z,40.73
2019-02-12T22:09:25.973Z,37.97
2019-02-12T22:11:55.916Z,27.70
2019-02-12T22:14:25.799Z,39.57
2019-02-12T22:16:55.840Z,42.00
2019-02-12T22:19:25.884Z,39.83
2019-02-12T22:21:55.850Z,34.67
2019-02-12T22:24:25.814Z,39.80
2019-02-12T22:26:55.906Z,38.57
2019-02-12T22:29:25.898Z,40.33
2019-02-12T22:31:55.808Z,37.93
2019-02-12T22:34:25.740Z,35.13
2019-02-12T22:36:56.040Z,35.10
2019-02-12T22:39:26.018Z,30.97
2019-02-12T22:41:55.940Z,31.77
2019-02-12T22:44:25.854Z,36.97
2019-02-12T22:46:55.830Z,30.37
2019-02-12T22:49:25.809Z,34.77
2019-02-12T22:51:55.694Z,25.63
2019-02-12T22:54:25.610Z,31.67
2019-02-12T22:56:55.543Z,32.20
2019-02-12T22:59:25.471Z,26.03
2019-02-12T23:01:55.455Z,42.33
2019-02-12T23:04:25.631Z,27.90
2019-02-12T23:06:55.565Z,29.57
2019-02-12T23:09:25.620Z,41.73
2019-02-12T23:11:55.587Z,33.97
2019-02-12T23:14:25.693Z,31.30
2019-02-12T23:16:55.929Z,28.47
2019-02-12T23:19:25.956Z,29.03
2019-02-12T23:21:55.939Z,31.50
2019-02-12T23:24:25.978Z,38.37
2019-02-12T23:26:55.994Z,32.10
2019-02-12T23:29:25.948Z,25.63
2019-02-12T23:31:55.818Z,28.33
2019-02-12T23:34:25.730Z,30.70
2019-02-12T23:36:55.715Z,34.80
2019-02-12T23:39:25.709Z,37.13
2019-02-12T23:41:55.773Z,28.73
2019-02-12T23:44:25.778Z,24.20
2019-02-12T23:46:55.799Z,27.70
2019-02-12T23:49:25.774Z,29.37
2019-02-12T23:51:55.833Z,27.37
2019-02-12T23:54:25.734Z,29.63
2019-02-12T23:56:55.665Z,29.57
2019-02-12T23:59:25.537Z,32.17
